Accueil
METAR-TAF:

METAR-TAF

Aéroports :

Rome-Fiumicino, Italie

Aéroport Léonard-de-Vinci de Rome Fiumicino

latitude: 41-48N, longitude: 012-14E, altitude: 2 m

Observation

Le bulletin a été fait il y a 2 heures et 21 minutes, à 14:50 UTC
Vent 8 kt de ouest
Température 11°C
Humidité 50%
Pression 1004 hPa
Visibilité 10 km ou plus
Quelques nuages à une hauteur de 3500 ft

METAR: LIRF 201450Z 27008KT 9999 FEW035 11/01 Q1004 NOSIG

Heure: 18:11 (17:11 UTC)

Prévision

Le bulletin a été fait il y a 6 heures et 11 minutes, à 11:00 UTC
Prévision valable du 20 à 12 UTC au 21 à 18 UTC
Vent 6 kt de direction variable
Visibilité 10 km ou plus
Nuages épars à une hauteur de 3000 ft
Evoluant progressivement
du 21 à 02 UTC au 21 à 04 UTC
Vent 12 kt de nord-est
Temporairement
du 21 à 12 UTC au 21 à 18 UTC
pluie

TAF: LIRF 201100Z 2012/2118 VRB06KT 9999 SCT030 BECMG 2102/2104 04012KT TEMPO 2112/2118 RA

Observations et prévisions météorologiques de plus de 4000 aéroports (messages METAR et TAF).

Les stations disponibles sont représentées par des disques jaunes et rouges sur la carte.

Passer la souris dessus pour voir le nom de la station.

Cliquer dessus pour voir les observations et prévisions météorologiques.

Pour changer de carte: cliquez sur les boutons verts avec une croix noire pour zoomer, sur le bouton vert avec un tiret pour effectuer un zoom arrière, ou sur les flèches vertes pour les cartes adjacentes.


METAR-TAF: